sensor_id;sensor_type;location;lat;lon;timestamp;P1;durP1;ratioP1;P2;durP2;ratioP2
19623;SDS011;9959;49.798;9.928;2022-11-21T00:01:12;3.08;;;1.58;;
19623;SDS011;9959;49.798;9.928;2022-11-21T00:03:43;9.95;;;2.65;;
19623;SDS011;9959;49.798;9.928;2022-11-21T00:06:12;3.72;;;1.77;;
19623;SDS011;9959;49.798;9.928;2022-11-21T00:08:41;4.13;;;1.90;;
19623;SDS011;9959;49.798;9.928;2022-11-21T00:11:09;9.50;;;1.80;;
19623;SDS011;9959;49.798;9.928;2022-11-21T00:13:37;4.28;;;2.00;;
19623;SDS011;9959;49.798;9.928;2022-11-21T00:16:05;3.67;;;1.75;;
19623;SDS011;9959;49.798;9.928;2022-11-21T00:18:35;5.35;;;1.98;;
19623;SDS011;9959;49.798;9.928;2022-11-21T00:21:03;11.73;;;2.75;;
19623;SDS011;9959;49.798;9.928;2022-11-21T00:23:34;6.28;;;1.80;;
19623;SDS011;9959;49.798;9.928;2022-11-21T00:26:02;7.65;;;2.10;;
19623;SDS011;9959;49.798;9.928;2022-11-21T00:28:31;8.05;;;1.95;;
19623;SDS011;9959;49.798;9.928;2022-11-21T00:30:59;2.83;;;2.20;;
19623;SDS011;9959;49.798;9.928;2022-11-21T00:33:27;7.65;;;2.90;;
19623;SDS011;9959;49.798;9.928;2022-11-21T00:35:55;3.40;;;1.77;;
19623;SDS011;9959;49.798;9.928;2022-11-21T00:38:23;4.00;;;2.50;;
19623;SDS011;9959;49.798;9.928;2022-11-21T00:40:52;10.25;;;2.17;;
19623;SDS011;9959;49.798;9.928;2022-11-21T00:43:20;8.27;;;2.50;;
19623;SDS011;9959;49.798;9.928;2022-11-21T00:45:48;6.13;;;1.88;;
19623;SDS011;9959;49.798;9.928;2022-11-21T00:48:16;6.15;;;2.90;;
19623;SDS011;9959;49.798;9.928;2022-11-21T00:50:46;6.75;;;2.10;;
19623;SDS011;9959;49.798;9.928;2022-11-21T00:53:15;10.63;;;2.42;;
19623;SDS011;9959;49.798;9.928;2022-11-21T00:55:43;6.10;;;2.15;;
19623;SDS011;9959;49.798;9.928;2022-11-21T00:58:12;7.65;;;1.83;;
19623;SDS011;9959;49.798;9.928;2022-11-21T01:00:40;4.63;;;2.17;;
19623;SDS011;9959;49.798;9.928;2022-11-21T01:03:08;4.50;;;1.75;;
19623;SDS011;9959;49.798;9.928;2022-11-21T01:05:36;7.97;;;1.73;;
19623;SDS011;9959;49.798;9.928;2022-11-21T01:08:04;4.30;;;2.03;;
19623;SDS011;9959;49.798;9.928;2022-11-21T01:10:32;7.10;;;2.03;;
19623;SDS011;9959;49.798;9.928;2022-11-21T01:13:00;8.63;;;1.92;;
19623;SDS011;9959;49.798;9.928;2022-11-21T01:15:30;3.20;;;1.65;;
19623;SDS011;9959;49.798;9.928;2022-11-21T01:17:58;5.78;;;2.22;;
19623;SDS011;9959;49.798;9.928;2022-11-21T01:20:26;4.97;;;2.15;;
19623;SDS011;9959;49.798;9.928;2022-11-21T01:22:53;3.95;;;1.67;;
19623;SDS011;9959;49.798;9.928;2022-11-21T01:25:21;4.20;;;1.67;;
19623;SDS011;9959;49.798;9.928;2022-11-21T01:27:49;6.93;;;2.03;;
19623;SDS011;9959;49.798;9.928;2022-11-21T01:30:17;3.50;;;1.63;;
19623;SDS011;9959;49.798;9.928;2022-11-21T01:32:48;3.50;;;1.65;;
19623;SDS011;9959;49.798;9.928;2022-11-21T01:35:16;3.08;;;1.60;;
19623;SDS011;9959;49.798;9.928;2022-11-21T01:37:45;1.65;;;1.50;;
19623;SDS011;9959;49.798;9.928;2022-11-21T01:40:14;4.00;;;1.50;;
19623;SDS011;9959;49.798;9.928;2022-11-21T01:42:43;6.63;;;1.67;;
19623;SDS011;9959;49.798;9.928;2022-11-21T01:48:31;5.85;;;1.40;;
19623;SDS011;9959;49.798;9.928;2022-11-21T01:51:05;2.55;;;1.35;;
19623;SDS011;9959;49.798;9.928;2022-11-21T01:53:36;3.97;;;1.33;;
19623;SDS011;9959;49.798;9.928;2022-11-21T01:56:06;3.10;;;1.27;;
19623;SDS011;9959;49.798;9.928;2022-11-21T01:58:35;4.05;;;1.17;;
19623;SDS011;9959;49.798;9.928;2022-11-21T02:01:06;4.32;;;1.42;;
19623;SDS011;9959;49.798;9.928;2022-11-21T02:03:36;3.20;;;1.40;;
19623;SDS011;9959;49.798;9.928;2022-11-21T02:06:05;3.25;;;1.42;;
19623;SDS011;9959;49.798;9.928;2022-11-21T02:08:36;3.30;;;1.67;;
19623;SDS011;9959;49.798;9.928;2022-11-21T02:11:06;2.38;;;1.65;;
19623;SDS011;9959;49.798;9.928;2022-11-21T02:13:39;5.53;;;1.50;;
19623;SDS011;9959;49.798;9.928;2022-11-21T02:16:07;2.42;;;1.15;;
19623;SDS011;9959;49.798;9.928;2022-11-21T02:18:37;2.63;;;1.52;;
19623;SDS011;9959;49.798;9.928;2022-11-21T02:21:06;3.72;;;1.33;;
19623;SDS011;9959;49.798;9.928;2022-11-21T02:23:45;5.15;;;1.50;;
19623;SDS011;9959;49.798;9.928;2022-11-21T02:26:26;3.55;;;1.52;;
19623;SDS011;9959;49.798;9.928;2022-11-21T02:28:54;5.70;;;1.30;;
19623;SDS011;9959;49.798;9.928;2022-11-21T02:31:23;2.55;;;1.40;;
19623;SDS011;9959;49.798;9.928;2022-11-21T02:33:51;2.47;;;1.25;;
19623;SDS011;9959;49.798;9.928;2022-11-21T02:36:36;1.40;;;1.30;;
19623;SDS011;9959;49.798;9.928;2022-11-21T02:39:09;5.05;;;1.42;;
19623;SDS011;9959;49.798;9.928;2022-11-21T02:41:43;3.38;;;1.55;;
19623;SDS011;9959;49.798;9.928;2022-11-21T02:44:19;4.65;;;1.98;;
19623;SDS011;9959;49.798;9.928;2022-11-21T02:46:51;6.55;;;1.75;;
19623;SDS011;9959;49.798;9.928;2022-11-21T02:49:21;3.85;;;1.48;;
19623;SDS011;9959;49.798;9.928;2022-11-21T02:51:55;7.15;;;1.88;;
19623;SDS011;9959;49.798;9.928;2022-11-21T02:54:23;9.82;;;2.63;;
19623;SDS011;9959;49.798;9.928;2022-11-21T02:56:53;8.10;;;1.80;;
19623;SDS011;9959;49.798;9.928;2022-11-21T02:59:22;3.67;;;1.65;;
19623;SDS011;9959;49.798;9.928;2022-11-21T03:01:50;10.23;;;1.85;;
19623;SDS011;9959;49.798;9.928;2022-11-21T03:04:18;12.13;;;2.08;;
19623;SDS011;9959;49.798;9.928;2022-11-21T03:06:46;8.93;;;2.30;;
19623;SDS011;9959;49.798;9.928;2022-11-21T03:09:14;7.18;;;2.30;;
19623;SDS011;9959;49.798;9.928;2022-11-21T03:11:42;5.38;;;1.77;;
19623;SDS011;9959;49.798;9.928;2022-11-21T03:14:11;4.80;;;1.95;;
19623;SDS011;9959;49.798;9.928;2022-11-21T03:16:39;9.02;;;2.13;;
19623;SDS011;9959;49.798;9.928;2022-11-21T03:19:07;7.45;;;1.85;;
19623;SDS011;9959;49.798;9.928;2022-11-21T03:21:35;4.70;;;1.90;;
19623;SDS011;9959;49.798;9.928;2022-11-21T03:24:03;9.85;;;2.97;;
19623;SDS011;9959;49.798;9.928;2022-11-21T03:26:32;7.07;;;2.70;;
19623;SDS011;9959;49.798;9.928;2022-11-21T03:29:00;5.00;;;1.90;;
19623;SDS011;9959;49.798;9.928;2022-11-21T03:31:29;12.27;;;1.90;;
19623;SDS011;9959;49.798;9.928;2022-11-21T03:33:57;9.85;;;2.60;;
19623;SDS011;9959;49.798;9.928;2022-11-21T03:36:25;11.52;;;2.20;;
19623;SDS011;9959;49.798;9.928;2022-11-21T03:38:53;6.88;;;2.03;;
19623;SDS011;9959;49.798;9.928;2022-11-21T03:41:22;11.27;;;2.30;;
19623;SDS011;9959;49.798;9.928;2022-11-21T03:43:56;7.10;;;2.50;;
19623;SDS011;9959;49.798;9.928;2022-11-21T03:46:25;9.85;;;1.90;;
19623;SDS011;9959;49.798;9.928;2022-11-21T03:48:55;11.57;;;2.42;;
19623;SDS011;9959;49.798;9.928;2022-11-21T03:51:23;6.70;;;2.10;;
19623;SDS011;9959;49.798;9.928;2022-11-21T03:53:51;7.47;;;2.72;;
19623;SDS011;9959;49.798;9.928;2022-11-21T03:56:20;5.57;;;1.90;;
19623;SDS011;9959;49.798;9.928;2022-11-21T03:58:48;5.20;;;1.92;;
19623;SDS011;9959;49.798;9.928;2022-11-21T04:01:16;9.13;;;2.35;;
19623;SDS011;9959;49.798;9.928;2022-11-21T04:03:44;5.35;;;2.30;;
19623;SDS011;9959;49.798;9.928;2022-11-21T04:06:15;4.70;;;2.20;;
19623;SDS011;9959;49.798;9.928;2022-11-21T04:08:44;6.85;;;2.63;;
19623;SDS011;9959;49.798;9.928;2022-11-21T04:11:13;7.75;;;2.08;;
19623;SDS011;9959;49.798;9.928;2022-11-21T04:13:41;6.20;;;2.38;;
19623;SDS011;9959;49.798;9.928;2022-11-21T04:16:09;7.30;;;2.00;;
19623;SDS011;9959;49.798;9.928;2022-11-21T04:18:37;10.77;;;1.92;;
19623;SDS011;9959;49.798;9.928;2022-11-21T04:21:05;4.85;;;2.20;;
19623;SDS011;9959;49.798;9.928;2022-11-21T04:23:35;9.00;;;2.15;;
19623;SDS011;9959;49.798;9.928;2022-11-21T04:26:03;10.82;;;2.58;;
19623;SDS011;9959;49.798;9.928;2022-11-21T04:28:31;8.85;;;2.30;;
19623;SDS011;9959;49.798;9.928;2022-11-21T04:31:03;11.57;;;2.05;;
19623;SDS011;9959;49.798;9.928;2022-11-21T04:33:36;9.13;;;2.10;;
19623;SDS011;9959;49.798;9.928;2022-11-21T04:36:05;5.40;;;2.08;;
19623;SDS011;9959;49.798;9.928;2022-11-21T04:38:33;6.18;;;2.00;;
19623;SDS011;9959;49.798;9.928;2022-11-21T04:41:02;10.77;;;2.15;;
19623;SDS011;9959;49.798;9.928;2022-11-21T04:43:31;8.65;;;2.35;;
19623;SDS011;9959;49.798;9.928;2022-11-21T04:45:59;11.82;;;2.88;;
19623;SDS011;9959;49.798;9.928;2022-11-21T04:48:27;9.98;;;2.40;;
19623;SDS011;9959;49.798;9.928;2022-11-21T04:50:55;8.18;;;2.58;;
19623;SDS011;9959;49.798;9.928;2022-11-21T04:53:22;6.45;;;2.00;;
19623;SDS011;9959;49.798;9.928;2022-11-21T04:55:50;6.15;;;1.95;;
19623;SDS011;9959;49.798;9.928;2022-11-21T04:58:20;9.30;;;2.60;;
19623;SDS011;9959;49.798;9.928;2022-11-21T05:00:48;8.32;;;2.30;;
19623;SDS011;9959;49.798;9.928;2022-11-21T05:03:16;7.93;;;2.42;;
19623;SDS011;9959;49.798;9.928;2022-11-21T05:05:43;2.28;;;1.70;;
19623;SDS011;9959;49.798;9.928;2022-11-21T05:08:12;7.93;;;2.58;;
19623;SDS011;9959;49.798;9.928;2022-11-21T05:10:39;10.32;;;2.35;;
19623;SDS011;9959;49.798;9.928;2022-11-21T05:13:26;9.27;;;1.90;;
19623;SDS011;9959;49.798;9.928;2022-11-21T05:15:57;14.68;;;2.17;;
19623;SDS011;9959;49.798;9.928;2022-11-21T05:18:25;7.63;;;2.28;;
19623;SDS011;9959;49.798;9.928;2022-11-21T05:20:52;8.13;;;2.38;;
19623;SDS011;9959;49.798;9.928;2022-11-21T05:23:21;9.73;;;2.50;;
19623;SDS011;9959;49.798;9.928;2022-11-21T05:25:49;8.57;;;2.17;;
19623;SDS011;9959;49.798;9.928;2022-11-21T05:28:17;8.13;;;1.75;;
19623;SDS011;9959;49.798;9.928;2022-11-21T05:30:46;6.30;;;2.47;;
19623;SDS011;9959;49.798;9.928;2022-11-21T05:33:14;5.03;;;2.00;;
19623;SDS011;9959;49.798;9.928;2022-11-21T05:35:42;5.32;;;1.90;;
19623;SDS011;9959;49.798;9.928;2022-11-21T05:38:10;6.88;;;1.98;;
19623;SDS011;9959;49.798;9.928;2022-11-21T05:40:38;7.25;;;2.08;;
19623;SDS011;9959;49.798;9.928;2022-11-21T05:43:06;10.00;;;2.30;;
19623;SDS011;9959;49.798;9.928;2022-11-21T05:45:55;5.97;;;1.75;;
19623;SDS011;9959;49.798;9.928;2022-11-21T05:48:23;6.90;;;2.10;;
19623;SDS011;9959;49.798;9.928;2022-11-21T05:50:51;6.15;;;2.00;;
19623;SDS011;9959;49.798;9.928;2022-11-21T05:53:19;4.78;;;2.05;;
19623;SDS011;9959;49.798;9.928;2022-11-21T05:55:47;8.60;;;2.70;;
19623;SDS011;9959;49.798;9.928;2022-11-21T05:58:15;4.95;;;2.15;;
19623;SDS011;9959;49.798;9.928;2022-11-21T06:00:43;5.60;;;2.10;;
19623;SDS011;9959;49.798;9.928;2022-11-21T06:03:12;8.00;;;2.42;;
19623;SDS011;9959;49.798;9.928;2022-11-21T06:05:59;4.00;;;1.75;;
19623;SDS011;9959;49.798;9.928;2022-11-21T06:08:32;3.88;;;1.98;;
19623;SDS011;9959;49.798;9.928;2022-11-21T06:11:02;7.57;;;2.35;;
19623;SDS011;9959;49.798;9.928;2022-11-21T06:13:31;8.77;;;2.22;;
19623;SDS011;9959;49.798;9.928;2022-11-21T06:16:00;5.90;;;2.30;;
19623;SDS011;9959;49.798;9.928;2022-11-21T06:18:34;7.28;;;2.28;;
19623;SDS011;9959;49.798;9.928;2022-11-21T06:21:03;7.22;;;2.45;;
19623;SDS011;9959;49.798;9.928;2022-11-21T06:23:34;7.60;;;2.50;;
19623;SDS011;9959;49.798;9.928;2022-11-21T06:26:03;9.18;;;2.20;;
19623;SDS011;9959;49.798;9.928;2022-11-21T06:28:32;7.28;;;2.42;;
19623;SDS011;9959;49.798;9.928;2022-11-21T06:31:02;7.80;;;2.17;;
19623;SDS011;9959;49.798;9.928;2022-11-21T06:33:32;6.90;;;2.10;;
19623;SDS011;9959;49.798;9.928;2022-11-21T06:36:01;11.90;;;1.95;;
19623;SDS011;9959;49.798;9.928;2022-11-21T06:38:29;9.07;;;2.40;;
19623;SDS011;9959;49.798;9.928;2022-11-21T06:40:57;10.32;;;2.55;;
19623;SDS011;9959;49.798;9.928;2022-11-21T06:43:25;6.70;;;2.00;;
19623;SDS011;9959;49.798;9.928;2022-11-21T06:45:54;4.15;;;2.20;;
19623;SDS011;9959;49.798;9.928;2022-11-21T06:48:22;6.35;;;2.30;;
19623;SDS011;9959;49.798;9.928;2022-11-21T06:50:51;5.97;;;2.20;;
19623;SDS011;9959;49.798;9.928;2022-11-21T06:53:19;7.93;;;1.88;;
19623;SDS011;9959;49.798;9.928;2022-11-21T06:55:47;6.20;;;2.25;;
19623;SDS011;9959;49.798;9.928;2022-11-21T06:58:15;5.60;;;1.77;;
19623;SDS011;9959;49.798;9.928;2022-11-21T07:00:42;8.57;;;2.30;;
19623;SDS011;9959;49.798;9.928;2022-11-21T07:03:11;6.18;;;2.25;;
19623;SDS011;9959;49.798;9.928;2022-11-21T07:05:39;7.88;;;2.50;;
19623;SDS011;9959;49.798;9.928;2022-11-21T07:08:08;7.60;;;2.10;;
19623;SDS011;9959;49.798;9.928;2022-11-21T07:10:38;6.68;;;2.30;;
19623;SDS011;9959;49.798;9.928;2022-11-21T07:13:27;6.50;;;2.50;;
19623;SDS011;9959;49.798;9.928;2022-11-21T07:15:59;8.90;;;2.50;;
19623;SDS011;9959;49.798;9.928;2022-11-21T07:18:28;7.47;;;2.30;;
19623;SDS011;9959;49.798;9.928;2022-11-21T07:20:56;5.93;;;2.30;;
19623;SDS011;9959;49.798;9.928;2022-11-21T07:23:27;7.22;;;2.60;;
19623;SDS011;9959;49.798;9.928;2022-11-21T07:25:58;4.18;;;2.30;;
19623;SDS011;9959;49.798;9.928;2022-11-21T07:28:27;11.35;;;2.85;;
19623;SDS011;9959;49.798;9.928;2022-11-21T07:30:55;4.85;;;2.42;;
19623;SDS011;9959;49.798;9.928;2022-11-21T07:33:23;7.32;;;2.40;;
19623;SDS011;9959;49.798;9.928;2022-11-21T07:35:51;6.93;;;2.15;;
19623;SDS011;9959;49.798;9.928;2022-11-21T07:38:21;5.45;;;2.40;;
19623;SDS011;9959;49.798;9.928;2022-11-21T07:40:51;5.47;;;2.47;;
19623;SDS011;9959;49.798;9.928;2022-11-21T07:43:19;9.32;;;2.95;;
19623;SDS011;9959;49.798;9.928;2022-11-21T07:45:47;8.80;;;2.70;;
19623;SDS011;9959;49.798;9.928;2022-11-21T07:48:15;8.07;;;2.75;;
19623;SDS011;9959;49.798;9.928;2022-11-21T07:50:42;8.85;;;3.00;;
19623;SDS011;9959;49.798;9.928;2022-11-21T07:53:10;10.55;;;3.20;;
19623;SDS011;9959;49.798;9.928;2022-11-21T07:55:38;6.30;;;2.53;;
19623;SDS011;9959;49.798;9.928;2022-11-21T07:58:09;5.88;;;3.00;;
19623;SDS011;9959;49.798;9.928;2022-11-21T08:00:38;7.25;;;3.03;;
19623;SDS011;9959;49.798;9.928;2022-11-21T08:03:08;3.92;;;2.30;;
19623;SDS011;9959;49.798;9.928;2022-11-21T08:05:39;7.90;;;2.30;;
19623;SDS011;9959;49.798;9.928;2022-11-21T08:08:09;10.43;;;2.70;;
19623;SDS011;9959;49.798;9.928;2022-11-21T08:10:39;6.32;;;2.58;;
19623;SDS011;9959;49.798;9.928;2022-11-21T08:13:10;4.95;;;2.20;;
19623;SDS011;9959;49.798;9.928;2022-11-21T08:15:38;6.47;;;1.90;;
19623;SDS011;9959;49.798;9.928;2022-11-21T08:18:07;8.05;;;2.60;;
19623;SDS011;9959;49.798;9.928;2022-11-21T08:20:36;6.45;;;2.53;;
19623;SDS011;9959;49.798;9.928;2022-11-21T08:23:04;5.25;;;2.13;;
19623;SDS011;9959;49.798;9.928;2022-11-21T08:25:33;8.40;;;3.45;;
19623;SDS011;9959;49.798;9.928;2022-11-21T08:28:03;5.45;;;1.92;;
19623;SDS011;9959;49.798;9.928;2022-11-21T08:30:33;3.20;;;1.52;;
19623;SDS011;9959;49.798;9.928;2022-11-21T08:33:02;5.78;;;2.00;;
19623;SDS011;9959;49.798;9.928;2022-11-21T08:35:31;4.57;;;2.00;;
19623;SDS011;9959;49.798;9.928;2022-11-21T08:37:59;2.25;;;1.77;;
19623;SDS011;9959;49.798;9.928;2022-11-21T08:40:28;7.63;;;1.95;;
19623;SDS011;9959;49.798;9.928;2022-11-21T08:42:57;2.97;;;1.83;;
19623;SDS011;9959;49.798;9.928;2022-11-21T08:45:26;6.22;;;2.20;;
19623;SDS011;9959;49.798;9.928;2022-11-21T08:47:56;4.85;;;1.88;;
19623;SDS011;9959;49.798;9.928;2022-11-21T08:50:24;4.97;;;2.08;;
19623;SDS011;9959;49.798;9.928;2022-11-21T08:52:57;4.20;;;1.70;;
19623;SDS011;9959;49.798;9.928;2022-11-21T08:55:26;6.53;;;2.10;;
19623;SDS011;9959;49.798;9.928;2022-11-21T08:57:54;7.88;;;2.33;;
19623;SDS011;9959;49.798;9.928;2022-11-21T09:00:22;7.68;;;2.17;;
19623;SDS011;9959;49.798;9.928;2022-11-21T09:02:50;5.15;;;2.13;;
19623;SDS011;9959;49.798;9.928;2022-11-21T09:05:19;6.32;;;2.63;;
19623;SDS011;9959;49.798;9.928;2022-11-21T09:07:47;6.93;;;2.40;;
19623;SDS011;9959;49.798;9.928;2022-11-21T09:10:21;6.15;;;2.80;;
19623;SDS011;9959;49.798;9.928;2022-11-21T09:12:49;5.30;;;2.70;;
19623;SDS011;9959;49.798;9.928;2022-11-21T09:15:17;11.30;;;3.28;;
19623;SDS011;9959;49.798;9.928;2022-11-21T09:18:02;8.23;;;3.10;;
19623;SDS011;9959;49.798;9.928;2022-11-21T09:20:39;4.25;;;3.13;;
19623;SDS011;9959;49.798;9.928;2022-11-21T09:23:08;8.57;;;2.95;;
19623;SDS011;9959;49.798;9.928;2022-11-21T09:25:37;5.03;;;2.33;;
19623;SDS011;9959;49.798;9.928;2022-11-21T09:28:06;6.35;;;2.90;;
19623;SDS011;9959;49.798;9.928;2022-11-21T09:30:35;6.85;;;3.00;;
19623;SDS011;9959;49.798;9.928;2022-11-21T09:33:04;5.53;;;3.00;;
19623;SDS011;9959;49.798;9.928;2022-11-21T09:35:34;6.30;;;3.38;;
19623;SDS011;9959;49.798;9.928;2022-11-21T09:38:02;5.05;;;3.10;;
19623;SDS011;9959;49.798;9.928;2022-11-21T09:40:31;8.43;;;3.08;;
19623;SDS011;9959;49.798;9.928;2022-11-21T09:43:13;12.07;;;3.83;;
19623;SDS011;9959;49.798;9.928;2022-11-21T09:45:51;6.55;;;2.92;;
19623;SDS011;9959;49.798;9.928;2022-11-21T09:48:23;4.70;;;2.75;;
19623;SDS011;9959;49.798;9.928;2022-11-21T09:51:00;4.00;;;2.50;;
19623;SDS011;9959;49.798;9.928;2022-11-21T09:53:32;7.15;;;2.63;;
19623;SDS011;9959;49.798;9.928;2022-11-21T09:56:03;4.20;;;2.50;;
19623;SDS011;9959;49.798;9.928;2022-11-21T09:58:34;7.72;;;3.35;;
19623;SDS011;9959;49.798;9.928;2022-11-21T10:01:08;4.90;;;2.95;;
19623;SDS011;9959;49.798;9.928;2022-11-21T10:03:40;5.72;;;2.55;;
19623;SDS011;9959;49.798;9.928;2022-11-21T10:06:16;9.73;;;2.90;;
19623;SDS011;9959;49.798;9.928;2022-11-21T10:08:49;6.90;;;2.70;;
19623;SDS011;9959;49.798;9.928;2022-11-21T10:11:27;4.55;;;2.72;;
19623;SDS011;9959;49.798;9.928;2022-11-21T10:14:26;8.20;;;3.05;;
19623;SDS011;9959;49.798;9.928;2022-11-21T10:17:08;6.80;;;2.80;;
19623;SDS011;9959;49.798;9.928;2022-11-21T10:19:47;8.95;;;2.80;;
19623;SDS011;9959;49.798;9.928;2022-11-21T10:22:42;5.75;;;2.78;;
19623;SDS011;9959;49.798;9.928;2022-11-21T10:25:22;5.80;;;2.20;;
19623;SDS011;9959;49.798;9.928;2022-11-21T10:27:53;5.10;;;2.22;;
19623;SDS011;9959;49.798;9.928;2022-11-21T10:30:24;6.72;;;2.60;;
19623;SDS011;9959;49.798;9.928;2022-11-21T10:32:53;7.78;;;2.90;;
19623;SDS011;9959;49.798;9.928;2022-11-21T10:35:24;6.97;;;2.08;;
19623;SDS011;9959;49.798;9.928;2022-11-21T10:37:59;11.73;;;3.38;;
19623;SDS011;9959;49.798;9.928;2022-11-21T10:40:31;7.05;;;2.63;;
19623;SDS011;9959;49.798;9.928;2022-11-21T10:43:03;5.45;;;2.95;;
19623;SDS011;9959;49.798;9.928;2022-11-21T10:45:49;3.58;;;2.15;;
19623;SDS011;9959;49.798;9.928;2022-11-21T10:48:17;4.97;;;2.30;;
19623;SDS011;9959;49.798;9.928;2022-11-21T10:50:49;5.78;;;2.28;;
19623;SDS011;9959;49.798;9.928;2022-11-21T10:53:33;6.40;;;2.05;;
19623;SDS011;9959;49.798;9.928;2022-11-21T10:56:19;8.02;;;2.15;;
19623;SDS011;9959;49.798;9.928;2022-11-21T10:58:50;9.45;;;2.70;;
19623;SDS011;9959;49.798;9.928;2022-11-21T11:01:20;8.05;;;2.70;;
19623;SDS011;9959;49.798;9.928;2022-11-21T11:07:12;5.63;;;2.47;;
19623;SDS011;9959;49.798;9.928;2022-11-21T11:09:49;4.57;;;2.35;;
19623;SDS011;9959;49.798;9.928;2022-11-21T11:12:20;2.10;;;1.70;;
19623;SDS011;9959;49.798;9.928;2022-11-21T11:15:19;5.38;;;1.88;;
19623;SDS011;9959;49.798;9.928;2022-11-21T11:17:49;5.70;;;1.98;;
19623;SDS011;9959;49.798;9.928;2022-11-21T11:20:33;7.40;;;1.95;;
19623;SDS011;9959;49.798;9.928;2022-11-21T11:23:22;3.95;;;1.83;;
19623;SDS011;9959;49.798;9.928;2022-11-21T11:25:54;7.03;;;2.33;;
19623;SDS011;9959;49.798;9.928;2022-11-21T11:28:23;3.92;;;1.52;;
19623;SDS011;9959;49.798;9.928;2022-11-21T11:30:52;3.53;;;1.60;;
19623;SDS011;9959;49.798;9.928;2022-11-21T11:33:31;2.50;;;1.88;;
19623;SDS011;9959;49.798;9.928;2022-11-21T11:36:09;5.57;;;2.28;;
19623;SDS011;9959;49.798;9.928;2022-11-21T11:38:41;6.15;;;2.38;;
19623;SDS011;9959;49.798;9.928;2022-11-21T11:41:16;6.30;;;1.80;;
19623;SDS011;9959;49.798;9.928;2022-11-21T11:43:55;6.05;;;2.03;;
19623;SDS011;9959;49.798;9.928;2022-11-21T11:46:49;5.80;;;2.20;;
19623;SDS011;9959;49.798;9.928;2022-11-21T11:49:45;6.95;;;2.00;;
19623;SDS011;9959;49.798;9.928;2022-11-21T11:52:37;4.65;;;2.38;;
19623;SDS011;9959;49.798;9.928;2022-11-21T11:55:13;7.07;;;3.15;;
19623;SDS011;9959;49.798;9.928;2022-11-21T11:57:46;4.90;;;1.90;;
19623;SDS011;9959;49.798;9.928;2022-11-21T12:00:21;10.00;;;2.10;;
19623;SDS011;9959;49.798;9.928;2022-11-21T12:02:56;6.10;;;2.53;;
19623;SDS011;9959;49.798;9.928;2022-11-21T12:05:30;4.22;;;2.03;;
19623;SDS011;9959;49.798;9.928;2022-11-21T12:08:02;4.65;;;1.85;;
19623;SDS011;9959;49.798;9.928;2022-11-21T12:10:58;2.33;;;1.70;;
19623;SDS011;9959;49.798;9.928;2022-11-21T12:13:51;7.55;;;2.00;;
19623;SDS011;9959;49.798;9.928;2022-11-21T12:16:24;4.65;;;1.90;;
19623;SDS011;9959;49.798;9.928;2022-11-21T12:18:54;6.32;;;2.00;;
19623;SDS011;9959;49.798;9.928;2022-11-21T12:21:26;4.38;;;1.73;;
19623;SDS011;9959;49.798;9.928;2022-11-21T12:23:55;4.65;;;1.45;;
19623;SDS011;9959;49.798;9.928;2022-11-21T12:26:30;4.50;;;2.00;;
19623;SDS011;9959;49.798;9.928;2022-11-21T12:29:08;4.53;;;1.70;;
19623;SDS011;9959;49.798;9.928;2022-11-21T12:31:48;5.25;;;1.65;;
19623;SDS011;9959;49.798;9.928;2022-11-21T12:34:31;3.53;;;1.50;;
19623;SDS011;9959;49.798;9.928;2022-11-21T12:37:08;7.00;;;1.85;;
19623;SDS011;9959;49.798;9.928;2022-11-21T12:39:53;4.57;;;1.70;;
19623;SDS011;9959;49.798;9.928;2022-11-21T12:42:35;2.97;;;1.48;;
19623;SDS011;9959;49.798;9.928;2022-11-21T12:45:25;3.05;;;1.50;;
19623;SDS011;9959;49.798;9.928;2022-11-21T12:54:30;3.90;;;1.27;;
19623;SDS011;9959;49.798;9.928;2022-11-21T12:57:15;2.45;;;1.33;;
19623;SDS011;9959;49.798;9.928;2022-11-21T12:59:49;13.15;;;2.65;;
19623;SDS011;9959;49.798;9.928;2022-11-21T13:02:27;3.60;;;1.23;;
19623;SDS011;9959;49.798;9.928;2022-11-21T13:05:01;3.70;;;1.50;;
19623;SDS011;9959;49.798;9.928;2022-11-21T13:07:31;2.25;;;1.35;;
19623;SDS011;9959;49.798;9.928;2022-11-21T13:10:00;2.92;;;1.40;;
19623;SDS011;9959;49.798;9.928;2022-11-21T13:12:33;7.10;;;1.50;;
19623;SDS011;9959;49.798;9.928;2022-11-21T13:15:13;8.27;;;2.17;;
19623;SDS011;9959;49.798;9.928;2022-11-21T13:17:50;9.52;;;2.17;;
19623;SDS011;9959;49.798;9.928;2022-11-21T13:20:25;3.92;;;1.85;;
19623;SDS011;9959;49.798;9.928;2022-11-21T13:22:58;4.60;;;1.73;;
19623;SDS011;9959;49.798;9.928;2022-11-21T13:25:35;7.25;;;2.00;;
19623;SDS011;9959;49.798;9.928;2022-11-21T13:30:56;1.83;;;1.23;;
19623;SDS011;9959;49.798;9.928;2022-11-21T13:36:37;4.95;;;1.52;;
19623;SDS011;9959;49.798;9.928;2022-11-21T13:42:00;6.93;;;1.45;;
19623;SDS011;9959;49.798;9.928;2022-11-21T13:44:49;2.85;;;1.45;;
19623;SDS011;9959;49.798;9.928;2022-11-21T13:47:36;3.95;;;1.70;;
19623;SDS011;9959;49.798;9.928;2022-11-21T13:50:30;9.90;;;1.75;;
19623;SDS011;9959;49.798;9.928;2022-11-21T13:53:13;19.05;;;2.50;;
19623;SDS011;9959;49.798;9.928;2022-11-21T13:55:56;38.10;;;3.85;;
19623;SDS011;9959;49.798;9.928;2022-11-21T14:01:37;3.60;;;1.55;;
19623;SDS011;9959;49.798;9.928;2022-11-21T14:04:29;3.63;;;1.35;;
19623;SDS011;9959;49.798;9.928;2022-11-21T14:07:24;8.52;;;1.70;;
19623;SDS011;9959;49.798;9.928;2022-11-21T14:09:55;12.80;;;1.98;;
19623;SDS011;9959;49.798;9.928;2022-11-21T14:12:26;6.28;;;1.45;;
19623;SDS011;9959;49.798;9.928;2022-11-21T14:15:10;4.35;;;2.08;;
19623;SDS011;9959;49.798;9.928;2022-11-21T14:17:47;5.50;;;1.92;;
19623;SDS011;9959;49.798;9.928;2022-11-21T14:20:18;3.65;;;1.63;;
19623;SDS011;9959;49.798;9.928;2022-11-21T14:22:53;9.25;;;2.53;;
19623;SDS011;9959;49.798;9.928;2022-11-21T14:25:30;13.25;;;2.92;;
19623;SDS011;9959;49.798;9.928;2022-11-21T14:28:02;14.38;;;2.50;;
19623;SDS011;9959;49.798;9.928;2022-11-21T14:30:34;16.13;;;3.20;;
19623;SDS011;9959;49.798;9.928;2022-11-21T14:33:26;4.25;;;2.03;;
19623;SDS011;9959;49.798;9.928;2022-11-21T14:36:00;6.65;;;1.90;;
19623;SDS011;9959;49.798;9.928;2022-11-21T14:38:31;8.32;;;1.45;;
19623;SDS011;9959;49.798;9.928;2022-11-21T14:41:10;4.97;;;1.70;;
19623;SDS011;9959;49.798;9.928;2022-11-21T14:43:50;4.50;;;1.95;;
19623;SDS011;9959;49.798;9.928;2022-11-21T14:46:28;5.57;;;1.77;;
19623;SDS011;9959;49.798;9.928;2022-11-21T14:49:08;5.28;;;1.80;;
19623;SDS011;9959;49.798;9.928;2022-11-21T14:51:46;7.72;;;1.88;;
19623;SDS011;9959;49.798;9.928;2022-11-21T14:54:17;3.53;;;1.70;;
19623;SDS011;9959;49.798;9.928;2022-11-21T14:56:47;5.72;;;2.20;;
19623;SDS011;9959;49.798;9.928;2022-11-21T14:59:21;3.83;;;2.55;;
19623;SDS011;9959;49.798;9.928;2022-11-21T15:01:55;6.35;;;2.42;;
19623;SDS011;9959;49.798;9.928;2022-11-21T15:04:26;17.60;;;3.30;;
19623;SDS011;9959;49.798;9.928;2022-11-21T15:06:57;7.28;;;2.42;;
19623;SDS011;9959;49.798;9.928;2022-11-21T15:09:27;9.38;;;2.70;;
19623;SDS011;9959;49.798;9.928;2022-11-21T15:12:18;8.23;;;2.90;;
19623;SDS011;9959;49.798;9.928;2022-11-21T15:14:52;9.88;;;3.00;;
19623;SDS011;9959;49.798;9.928;2022-11-21T15:17:24;6.85;;;3.25;;
19623;SDS011;9959;49.798;9.928;2022-11-21T15:20:04;12.80;;;3.08;;
19623;SDS011;9959;49.798;9.928;2022-11-21T15:22:43;6.07;;;3.22;;
19623;SDS011;9959;49.798;9.928;2022-11-21T15:25:16;10.80;;;3.72;;
19623;SDS011;9959;49.798;9.928;2022-11-21T15:27:45;10.13;;;3.47;;
19623;SDS011;9959;49.798;9.928;2022-11-21T15:30:19;11.05;;;3.28;;
19623;SDS011;9959;49.798;9.928;2022-11-21T15:32:59;8.90;;;3.42;;
19623;SDS011;9959;49.798;9.928;2022-11-21T15:35:40;9.27;;;3.70;;
19623;SDS011;9959;49.798;9.928;2022-11-21T15:38:14;9.50;;;3.75;;
19623;SDS011;9959;49.798;9.928;2022-11-21T15:43:53;14.60;;;5.75;;
19623;SDS011;9959;49.798;9.928;2022-11-21T15:46:23;14.90;;;6.68;;
19623;SDS011;9959;49.798;9.928;2022-11-21T15:48:53;14.75;;;5.28;;
19623;SDS011;9959;49.798;9.928;2022-11-21T15:51:23;10.18;;;5.20;;
19623;SDS011;9959;49.798;9.928;2022-11-21T15:54:12;11.35;;;5.35;;
19623;SDS011;9959;49.798;9.928;2022-11-21T15:56:43;12.05;;;4.97;;
19623;SDS011;9959;49.798;9.928;2022-11-21T15:59:12;14.18;;;5.38;;